SEGUSECU

Guest
Details From SEGU - Guayauqiil - Simon Bolivar Intl
To SECU - MARISCAL LAMAR
Flight Number -
Tags generated
Created
Modified
Stats Distance 72 nm / 132 km
Max Altitude 3,500 ft / 1,067 m
Waypoints 3
Social Downloads 2
Likes 0
Share VATSIM

Download

Looking for another format? Having issues loading an existing format? Contact us
Advertisement - Login to hide

Notes

Basic altitude profile: - Ascent Rate: 2500ft/min - Ascent Speed: 250kts - Cruise Altitude: 35000ft - Cruise Speed: 420kts - Descent Rate: 1500ft/min - Descent Speed: 250kts Options: - Use NATs: yes - Use PACOTS: yes - Use low airways: yes - Use high airways: yes

Route

SEGU LOGUS SECU

ID Type Via Altitude Latitude Longitude Leg Dist Tot Dist Heading (true) Name
O SEGU APT - 0 ft / 0 m -2.15742˚ -79.88356˚ - 0 nm - Guayauqiil - Simon Bolivar Intl
LOGUS FIX - 3,500 ft / 1,067 m -2.82111˚ -79.24861˚ 55 nm 55 nm 136° / 136° -
O SECU APT - 0 ft / 0 m -2.88947˚ -78.98440˚ 16 nm 71 nm 105° / 105° MARISCAL LAMAR

Altitude Profile

Advertisement - Login to hide

SEGU

Details ICAO SEGU (GYE)
Name Guayauqiil - Simon Bolivar Intl
Region Equador
Timezone America/Guayaquil (UTC-5.0)
Stats Elevation 19 ft / 6 m (AMSL)
Location -2.157419° -79.883559°
Runways 1
Magnetic Variation 2.152° W

METAR

SEGU 172300Z 21008KT 9999 BKN026 SCT100 30/21 Q1007 NOSIG RMK A2975

Decode

TAF

Not found

Departure Runways

ID Width Length Bearing (true) Bearing (mag) Surface Threshold Offset Overrun Length
03 151 ft / 46 m 9,184 ft / 2,799 m 30.43° 32.58° Asphalt 338 ft / 103 m 280 ft / 85 m
21 151 ft / 46 m 9,184 ft / 2,799 m 210.43° 212.58° Asphalt 810 ft / 247 m 230 ft / 70 m

SECU

Details ICAO SECU (CUE)
Name MARISCAL LAMAR
Region Equador
Timezone America/Guayaquil (UTC-5.0)
Stats Elevation 8,306 ft / 2,532 m (AMSL)
Location -2.889468° -78.984398°
Runways 1
Magnetic Variation 2.619° W

METAR

SECU 172200Z 07008KT 9999 SCT040 24/07 Q1021

Decode

TAF

Not found

Destination Runways

ID Width Length Bearing (true) Bearing (mag) Surface Threshold Offset Overrun Length
05 118 ft / 36 m 6,240 ft / 1,902 m 51.98° 54.60° Asphalt 0 ft / 0 m 141 ft / 43 m
23 118 ft / 36 m 6,240 ft / 1,902 m 231.97° 234.59° Asphalt 0 ft / 0 m 0 ft / 0 m

Approach Navaids

Runway Type Ident Frequency Range Bearing (true) Bearing (mag) Slope Elevation
23 Localiser ILC 110.90 MHz 18 nm / 33 km 232.25° 234.87° - 8,284 ft / 2,525 m (AMSL)
23 Glidescope ILC 110.90 MHz 10 nm / 19 km 231.97° 234.59° 3.20° 8,284 ft / 2,525 m (AMSL)
23 DME ILC 110.90 MHz 18 nm / 33 km - - - 8,306 ft / 2,532 m (AMSL)

Popular Alternatives